createdAt,value
2017-03-14T00:00:03.319Z,69.52
2017-03-14T00:00:07.780Z,69.48
2017-03-14T00:00:12.253Z,69.57
2017-03-14T00:00:16.867Z,69.52
2017-03-14T00:00:21.476Z,69.8
2017-03-14T00:00:26.103Z,69.77
2017-03-14T00:00:30.720Z,69.42
2017-03-14T00:00:35.338Z,69.61
2017-03-14T00:00:39.958Z,69.8
2017-03-14T00:00:44.418Z,69.77
2017-03-14T00:00:48.750Z,69.9
2017-03-14T00:00:53.065Z,69.67
2017-03-14T00:00:57.676Z,69.8
2017-03-14T00:01:02.396Z,69.67
2017-03-14T00:01:07.007Z,69.71
2017-03-14T00:01:11.474Z,69.8
2017-03-14T00:01:16.089Z,69.77
2017-03-14T00:01:20.696Z,69.57
2017-03-14T00:01:25.308Z,70.15
2017-03-14T00:01:29.795Z,70.15
2017-03-14T00:01:34.262Z,69.9
2017-03-14T00:01:38.888Z,70.24
2017-03-14T00:01:43.366Z,69.99
2017-03-14T00:01:47.834Z,70.09
2017-03-14T00:01:52.451Z,70.05
2017-03-14T00:01:56.908Z,69.99
2017-03-14T00:02:01.979Z,70.15
2017-03-14T00:02:06.439Z,70.28
2017-03-14T00:02:11.048Z,70.37
2017-03-14T00:02:15.694Z,69.96
2017-03-14T00:02:20.300Z,69.96
2017-03-14T00:02:24.911Z,70.28
2017-03-14T00:02:29.371Z,70.05
2017-03-14T00:02:33.843Z,70.24
2017-03-14T00:02:38.459Z,69.9
2017-03-14T00:02:43.073Z,70.05
2017-03-14T00:02:47.543Z,69.86
2017-03-14T00:02:52.004Z,70.34
2017-03-14T00:02:56.625Z,70.24
2017-03-14T00:03:01.091Z,70.53
2017-03-14T00:03:05.700Z,70.24
2017-03-14T00:03:10.300Z,70.53
2017-03-14T00:03:14.905Z,70.62
2017-03-14T00:03:19.413Z,70.15
2017-03-14T00:03:24.023Z,70.53
2017-03-14T00:03:28.479Z,70.65
2017-03-14T00:03:33.085Z,70.53
2017-03-14T00:03:37.693Z,70.62
2017-03-14T00:03:42.329Z,70.62
2017-03-14T00:03:46.804Z,70.43
2017-03-14T00:03:51.264Z,70.53
2017-03-14T00:03:55.739Z,70.62
2017-03-14T00:04:00.390Z,70.47
2017-03-14T00:04:05.005Z,70.43
2017-03-14T00:04:09.622Z,70.43
2017-03-14T00:04:14.230Z,70.56
2017-03-14T00:04:18.857Z,70.34
2017-03-14T00:04:23.477Z,70.37
2017-03-14T00:04:27.944Z,70.34
2017-03-14T00:04:32.553Z,70.56
2017-03-14T00:04:37.160Z,70.15
2017-03-14T00:04:41.780Z,70.72
2017-03-14T00:04:46.389Z,70.53
2017-03-14T00:04:50.998Z,70.72
2017-03-14T00:04:55.313Z,70.65
2017-03-14T00:04:59.636Z,70.53
2017-03-14T00:05:04.104Z,70.65
2017-03-14T00:05:08.726Z,70.81
2017-03-14T00:05:13.336Z,70.75
2017-03-14T00:05:17.954Z,70.9
2017-03-14T00:05:22.424Z,70.34
2017-03-14T00:05:27.037Z,70.9
2017-03-14T00:05:31.645Z,71
2017-03-14T00:05:36.254Z,71.09
2017-03-14T00:05:40.880Z,71
2017-03-14T00:05:45.351Z,71.19
2017-03-14T00:05:49.957Z,71.09
2017-03-14T00:05:54.427Z,71.28
2017-03-14T00:05:58.899Z,71.28
2017-03-14T00:06:03.228Z,71.19
2017-03-14T00:06:07.693Z,71.09
2017-03-14T00:06:12.308Z,71.28
2017-03-14T00:06:16.931Z,71.28
2017-03-14T00:06:21.543Z,70.9
2017-03-14T00:06:26.169Z,70.9
2017-03-14T00:06:30.777Z,70.81
2017-03-14T00:06:35.379Z,71.19
2017-03-14T00:06:39.994Z,71
2017-03-14T00:06:44.464Z,71.47
2017-03-14T00:06:48.932Z,71.47
2017-03-14T00:06:53.551Z,71.57
2017-03-14T00:06:58.163Z,71.66
2017-03-14T00:07:02.631Z,71.28
2017-03-14T00:07:07.104Z,71.47
2017-03-14T00:07:11.747Z,71.47
2017-03-14T00:07:16.368Z,71.47
2017-03-14T00:07:20.832Z,71.47
2017-03-14T00:07:25.303Z,71.57
2017-03-14T00:07:29.783Z,71.47
2017-03-14T00:07:34.387Z,71.47
2017-03-14T00:07:39.001Z,71.57
2017-03-14T00:07:43.616Z,72.04
2017-03-14T00:07:48.085Z,71.95
2017-03-14T00:07:52.254Z,71.85
2017-03-14T00:07:56.586Z,72.04
2017-03-14T00:08:01.201Z,71.95
2017-03-14T00:08:05.543Z,71.95
2017-03-14T00:08:10.005Z,71.76
2017-03-14T00:08:14.616Z,71.95
2017-03-14T00:08:19.236Z,71.95
2017-03-14T00:08:23.852Z,71.95
2017-03-14T00:08:28.312Z,71.76
2017-03-14T00:08:32.917Z,71.76
2017-03-14T00:08:37.537Z,71.76
2017-03-14T00:08:42.147Z,71.85
2017-03-14T00:08:46.611Z,71.57
2017-03-14T00:08:51.076Z,71.57
2017-03-14T00:08:55.397Z,71.66
2017-03-14T00:09:00.010Z,71.66
2017-03-14T00:09:04.665Z,71.95
2017-03-14T00:09:09.265Z,71.76
2017-03-14T00:09:13.879Z,71.76
2017-03-14T00:09:18.494Z,71.76
2017-03-14T00:09:22.964Z,72.04
2017-03-14T00:09:27.593Z,71.85
2017-03-14T00:09:32.061Z,71.76
2017-03-14T00:09:36.681Z,71.95
2017-03-14T00:09:41.156Z,71.95
2017-03-14T00:09:45.629Z,72.33
2017-03-14T00:09:49.945Z,72.04
2017-03-14T00:09:54.562Z,72.14
2017-03-14T00:09:59.028Z,72.23
2017-03-14T00:10:03.482Z,72.23
2017-03-14T00:10:07.656Z,72.8
2017-03-14T00:10:12.273Z,72.8
2017-03-14T00:10:16.878Z,72.71
2017-03-14T00:10:21.489Z,72.42
2017-03-14T00:10:25.964Z,72.8
2017-03-14T00:10:30.602Z,72.71
2017-03-14T00:10:35.211Z,72.61
2017-03-14T00:10:39.827Z,72.8
2017-03-14T00:10:44.432Z,72.61
2017-03-14T00:10:48.909Z,72.71
2017-03-14T00:10:53.080Z,72.71
2017-03-14T00:10:57.545Z,72.61
2017-03-14T00:11:02.008Z,72.61
2017-03-14T00:11:06.619Z,72.71
2017-03-14T00:11:11.232Z,72.71
2017-03-14T00:11:15.847Z,72.71
2017-03-14T00:11:20.457Z,72.52
2017-03-14T00:11:24.944Z,72.52
2017-03-14T00:11:29.411Z,72.61
2017-03-14T00:11:34.028Z,72.71
2017-03-14T00:11:38.640Z,72.8
2017-03-14T00:11:43.255Z,72.89
2017-03-14T00:11:47.575Z,72.89
2017-03-14T00:11:52.053Z,73.08
2017-03-14T00:11:56.666Z,72.8
2017-03-14T00:12:01.122Z,73.08
2017-03-14T00:12:05.597Z,72.89
2017-03-14T00:12:10.091Z,72.71
2017-03-14T00:12:14.691Z,72.8
2017-03-14T00:12:19.298Z,72.61
2017-03-14T00:12:23.748Z,72.61
2017-03-14T00:12:28.354Z,72.42
2017-03-14T00:12:32.962Z,72.42
2017-03-14T00:12:37.577Z,72.8
2017-03-14T00:12:42.188Z,72.23
2017-03-14T00:12:46.837Z,72.71
2017-03-14T00:12:51.442Z,72.89
2017-03-14T00:12:55.911Z,72.71
2017-03-14T00:13:00.528Z,72.89
2017-03-14T00:13:05.135Z,72.8
2017-03-14T00:13:09.751Z,72.8
2017-03-14T00:13:14.394Z,72.71
2017-03-14T00:13:19.009Z,72.8
2017-03-14T00:13:23.177Z,72.71
2017-03-14T00:13:27.789Z,72.89
2017-03-14T00:13:32.259Z,72.89
2017-03-14T00:13:36.761Z,73.08
2017-03-14T00:13:41.377Z,72.71
2017-03-14T00:13:45.992Z,73.08
2017-03-14T00:13:50.607Z,73.08
2017-03-14T00:13:55.079Z,72.52
2017-03-14T00:13:59.542Z,72.61
2017-03-14T00:14:04.147Z,72.61
2017-03-14T00:14:08.641Z,73.08
2017-03-14T00:14:13.250Z,72.99
2017-03-14T00:14:17.865Z,72.89
2017-03-14T00:14:22.481Z,73.08
2017-03-14T00:14:26.954Z,72.61
2017-03-14T00:14:31.425Z,73.08
2017-03-14T00:14:36.060Z,72.99
2017-03-14T00:14:40.656Z,72.89
2017-03-14T00:14:45.259Z,72.61
2017-03-14T00:14:49.876Z,73.08
2017-03-14T00:14:54.346Z,72.8
2017-03-14T00:14:58.955Z,72.71
2017-03-14T00:15:03.413Z,72.61
2017-03-14T00:15:08.015Z,72.71
2017-03-14T00:15:12.663Z,72.52
2017-03-14T00:15:17.276Z,72.89
2017-03-14T00:15:21.745Z,72.89
2017-03-14T00:15:26.217Z,72.42
2017-03-14T00:15:30.835Z,72.52
2017-03-14T00:15:35.298Z,72.42
2017-03-14T00:15:39.898Z,72.71
2017-03-14T00:15:44.510Z,72.71
2017-03-14T00:15:48.977Z,72.52
2017-03-14T00:15:53.447Z,72.71
2017-03-14T00:15:57.913Z,72.71
2017-03-14T00:16:02.523Z,72.71
2017-03-14T00:16:07.140Z,73.08
2017-03-14T00:16:11.758Z,72.61
2017-03-14T00:16:16.210Z,72.89
2017-03-14T00:16:20.824Z,72.71
2017-03-14T00:16:25.283Z,72.71
2017-03-14T00:16:29.764Z,72.71
2017-03-14T00:16:34.407Z,72.61
2017-03-14T00:16:39.016Z,72.71
2017-03-14T00:16:43.633Z,72.61
2017-03-14T00:16:48.096Z,72.61
2017-03-14T00:16:52.559Z,72.52
2017-03-14T00:16:56.872Z,72.52
2017-03-14T00:17:01.486Z,73.08
2017-03-14T00:17:06.455Z,72.89
2017-03-14T00:17:11.071Z,72.52
2017-03-14T00:17:15.685Z,72.89
2017-03-14T00:17:20.295Z,73.08
2017-03-14T00:17:24.613Z,73.08
2017-03-14T00:17:29.085Z,72.89
2017-03-14T00:17:33.413Z,72.89
2017-03-14T00:17:38.023Z,72.89
2017-03-14T00:17:42.646Z,72.8
2017-03-14T00:17:46.972Z,72.8
2017-03-14T00:17:51.580Z,72.71
2017-03-14T00:17:55.897Z,72.8
2017-03-14T00:18:00.515Z,72.89
2017-03-14T00:18:05.134Z,72.99
2017-03-14T00:18:09.598Z,72.99
2017-03-14T00:18:14.214Z,73.08
2017-03-14T00:18:18.830Z,72.8
2017-03-14T00:18:23.293Z,72.71
2017-03-14T00:18:27.908Z,72.89
2017-03-14T00:18:32.411Z,73.08
2017-03-14T00:18:37.024Z,72.89
2017-03-14T00:18:41.632Z,72.99
2017-03-14T00:18:46.245Z,73.08
2017-03-14T00:18:50.571Z,73.08
2017-03-14T00:18:55.042Z,73.18
2017-03-14T00:18:59.653Z,73.08
2017-03-14T00:19:04.262Z,73.08
2017-03-14T00:19:08.876Z,73.37
2017-03-14T00:19:13.485Z,73.37
2017-03-14T00:19:18.110Z,73.46
2017-03-14T00:19:22.721Z,73.27
2017-03-14T00:19:27.189Z,73.27
2017-03-14T00:19:31.649Z,73.37
2017-03-14T00:19:36.265Z,73.46
2017-03-14T00:19:40.894Z,73.37
2017-03-14T00:19:45.508Z,73.27
2017-03-14T00:19:50.113Z,73.46
2017-03-14T00:19:54.733Z,73.37
2017-03-14T00:19:59.338Z,73.37
2017-03-14T00:20:03.797Z,73.65
2017-03-14T00:20:08.412Z,73.65
2017-03-14T00:20:13.040Z,73.46
2017-03-14T00:20:17.640Z,73.84
2017-03-14T00:20:22.253Z,73.75
2017-03-14T00:20:26.879Z,73.84
2017-03-14T00:20:31.344Z,73.56
2017-03-14T00:20:35.956Z,73.75
2017-03-14T00:20:40.579Z,73.84
2017-03-14T00:20:45.045Z,73.84
2017-03-14T00:20:49.501Z,73.27
2017-03-14T00:20:53.816Z,73.56
2017-03-14T00:20:58.288Z,73.65
2017-03-14T00:21:03.089Z,73.08
2017-03-14T00:21:07.698Z,73.27
2017-03-14T00:21:12.306Z,73.56
2017-03-14T00:21:16.908Z,73.18
2017-03-14T00:21:21.368Z,73.46
2017-03-14T00:21:25.673Z,73.08
2017-03-14T00:21:30.297Z,73.27
2017-03-14T00:21:34.910Z,73.27
2017-03-14T00:21:39.518Z,73.46
2017-03-14T00:21:44.133Z,73.08
2017-03-14T00:21:48.592Z,73.65
2017-03-14T00:21:53.206Z,73.84
2017-03-14T00:21:57.679Z,73.27
2017-03-14T00:22:02.138Z,73.65
2017-03-14T00:22:06.601Z,73.65
2017-03-14T00:22:11.060Z,73.56
2017-03-14T00:22:15.674Z,73.65
2017-03-14T00:22:20.135Z,73.65
2017-03-14T00:22:24.743Z,73.37
2017-03-14T00:22:29.355Z,73.94
2017-03-14T00:22:34.001Z,73.56
2017-03-14T00:22:38.614Z,73.75
2017-03-14T00:22:43.219Z,73.56
2017-03-14T00:22:47.684Z,73.27
2017-03-14T00:22:52.156Z,73.18
2017-03-14T00:22:56.772Z,73.75
2017-03-14T00:23:01.382Z,73.65
2017-03-14T00:23:05.991Z,73.56
2017-03-14T00:23:10.600Z,73.56
2017-03-14T00:23:15.215Z,73.65
2017-03-14T00:23:19.830Z,73.65
2017-03-14T00:23:24.310Z,73.56
2017-03-14T00:23:28.971Z,73.56
2017-03-14T00:23:33.290Z,73.65
2017-03-14T00:23:37.910Z,73.56
2017-03-14T00:23:42.543Z,73.75
2017-03-14T00:23:47.153Z,73.84
2017-03-14T00:23:51.626Z,73.65
2017-03-14T00:23:55.952Z,73.94
2017-03-14T00:24:00.415Z,73.65
2017-03-14T00:24:05.020Z,73.27
2017-03-14T00:24:09.496Z,73.75
2017-03-14T00:24:14.116Z,73.56
2017-03-14T00:24:18.582Z,73.65
2017-03-14T00:24:23.184Z,72.89
2017-03-14T00:24:27.809Z,73.18
2017-03-14T00:24:32.272Z,73.75
2017-03-14T00:24:36.881Z,73.56
2017-03-14T00:24:41.485Z,73.27
2017-03-14T00:24:46.109Z,73.18
2017-03-14T00:24:50.578Z,73.65
2017-03-14T00:24:55.191Z,73.46
2017-03-14T00:24:59.801Z,73.18
2017-03-14T00:25:04.121Z,73.75
2017-03-14T00:25:08.735Z,73.75
2017-03-14T00:25:13.348Z,73.56
2017-03-14T00:25:17.955Z,73.56
2017-03-14T00:25:22.422Z,73.75
2017-03-14T00:25:27.036Z,73.75
2017-03-14T00:25:31.649Z,73.65
2017-03-14T00:25:36.261Z,73.37
2017-03-14T00:25:40.877Z,73.46
2017-03-14T00:25:45.486Z,73.56
2017-03-14T00:25:50.096Z,73.65
2017-03-14T00:25:54.563Z,73.46
2017-03-14T00:25:59.165Z,73.37
2017-03-14T00:26:03.776Z,73.65
2017-03-14T00:26:08.381Z,73.56
2017-03-14T00:26:13.000Z,73.27
2017-03-14T00:26:17.626Z,73.46
2017-03-14T00:26:22.084Z,73.75
2017-03-14T00:26:26.705Z,73.65
2017-03-14T00:26:31.038Z,73.75
2017-03-14T00:26:35.638Z,73.56
2017-03-14T00:26:40.250Z,73.65
2017-03-14T00:26:44.567Z,73.65
2017-03-14T00:26:49.190Z,73.56
2017-03-14T00:26:53.653Z,73.84
2017-03-14T00:26:58.266Z,73.46
2017-03-14T00:27:02.591Z,73.27
2017-03-14T00:27:07.095Z,73.65
2017-03-14T00:27:11.755Z,73.75
2017-03-14T00:27:16.364Z,73.94
2017-03-14T00:27:20.836Z,73.27
2017-03-14T00:27:25.309Z,73.75
2017-03-14T00:27:29.789Z,73.75
2017-03-14T00:27:34.409Z,73.08
2017-03-14T00:27:39.022Z,73.65
2017-03-14T00:27:43.636Z,73.65
2017-03-14T00:27:48.249Z,73.84
2017-03-14T00:27:52.881Z,73.65
2017-03-14T00:27:57.498Z,73.84
2017-03-14T00:28:02.109Z,73.65
2017-03-14T00:28:06.576Z,73.08
2017-03-14T00:28:11.037Z,73.56
2017-03-14T00:28:15.657Z,73.46
2017-03-14T00:28:20.274Z,73.56
2017-03-14T00:28:24.876Z,73.08
2017-03-14T00:28:29.337Z,73.84
2017-03-14T00:28:33.654Z,73.56
2017-03-14T00:28:38.273Z,73.75
2017-03-14T00:28:42.736Z,73.46
2017-03-14T00:28:47.353Z,73.08
2017-03-14T00:28:52.002Z,73.46
2017-03-14T00:28:56.619Z,73.18
2017-03-14T00:29:01.088Z,73.27
2017-03-14T00:29:05.545Z,73.65
2017-03-14T00:29:10.156Z,73.27
2017-03-14T00:29:14.759Z,73.37
2017-03-14T00:29:19.217Z,73.37
2017-03-14T00:29:23.689Z,73.46
2017-03-14T00:29:28.300Z,73.37
2017-03-14T00:29:32.906Z,73.75
2017-03-14T00:29:37.524Z,73.65
2017-03-14T00:29:42.130Z,73.75
2017-03-14T00:29:46.589Z,73.84
2017-03-14T00:29:51.220Z,73.56
2017-03-14T00:29:55.839Z,73.37
2017-03-14T00:30:00.455Z,73.37
2017-03-14T00:30:04.914Z,73.65
2017-03-14T00:30:09.385Z,74.13
2017-03-14T00:30:13.988Z,73.65
2017-03-14T00:30:18.601Z,73.65
2017-03-14T00:30:23.208Z,73.65
2017-03-14T00:30:27.827Z,73.65
2017-03-14T00:30:32.445Z,73.65
2017-03-14T00:30:37.057Z,73.65
2017-03-14T00:30:41.668Z,73.94
2017-03-14T00:30:46.274Z,73.75
2017-03-14T00:30:50.735Z,73.94
2017-03-14T00:30:55.346Z,73.65
2017-03-14T00:30:59.969Z,73.84
2017-03-14T00:31:04.683Z,73.75
2017-03-14T00:31:09.295Z,73.75
2017-03-14T00:31:13.904Z,73.75
2017-03-14T00:31:18.521Z,73.75
2017-03-14T00:31:23.138Z,73.56
2017-03-14T00:31:27.605Z,73.75
2017-03-14T00:31:32.224Z,73.75
2017-03-14T00:31:36.702Z,73.75
2017-03-14T00:31:41.313Z,73.65
2017-03-14T00:31:45.921Z,73.84
2017-03-14T00:31:50.537Z,73.94
2017-03-14T00:31:55.012Z,73.56
2017-03-14T00:31:59.481Z,73.65
2017-03-14T00:32:04.245Z,73.56
2017-03-14T00:32:08.907Z,73.75
2017-03-14T00:32:13.380Z,74.03
2017-03-14T00:32:17.992Z,73.37
2017-03-14T00:32:22.304Z,73.18
2017-03-14T00:32:26.928Z,73.75
2017-03-14T00:32:31.548Z,73.65
2017-03-14T00:32:36.160Z,73.56
2017-03-14T00:32:40.763Z,73.46
2017-03-14T00:32:45.372Z,73.27
2017-03-14T00:32:49.982Z,73.18
2017-03-14T00:32:54.445Z,73.18
2017-03-14T00:32:59.053Z,73.08
2017-03-14T00:33:03.816Z,73.18
2017-03-14T00:33:08.449Z,73.46
2017-03-14T00:33:13.057Z,73.56
2017-03-14T00:33:17.669Z,73.46
2017-03-14T00:33:22.286Z,73.27
2017-03-14T00:33:26.763Z,73.27
2017-03-14T00:33:31.377Z,73.65
2017-03-14T00:33:35.992Z,73.65
2017-03-14T00:33:40.614Z,73.75
2017-03-14T00:33:45.259Z,73.75
2017-03-14T00:33:49.865Z,73.65
2017-03-14T00:33:54.186Z,73.56
2017-03-14T00:33:58.794Z,73.37
2017-03-14T00:34:03.407Z,73.37
2017-03-14T00:34:07.879Z,73.08
2017-03-14T00:34:12.498Z,73.08
2017-03-14T00:34:17.126Z,73.46
2017-03-14T00:34:21.586Z,73.27
2017-03-14T00:34:26.189Z,72.99
2017-03-14T00:34:30.793Z,73.65
2017-03-14T00:34:35.249Z,73.46
2017-03-14T00:34:39.716Z,73.27
2017-03-14T00:34:44.318Z,73.56
2017-03-14T00:34:48.916Z,73.27
2017-03-14T00:34:53.373Z,73.27
2017-03-14T00:34:57.823Z,73.46
2017-03-14T00:35:02.326Z,73.75
2017-03-14T00:35:06.783Z,73.27
2017-03-14T00:35:11.237Z,73.27
2017-03-14T00:35:15.838Z,73.46
2017-03-14T00:35:20.302Z,73.08
2017-03-14T00:35:24.905Z,73.37
2017-03-14T00:35:29.365Z,73.18
2017-03-14T00:35:33.836Z,73.46
2017-03-14T00:35:38.451Z,72.89
2017-03-14T00:35:43.057Z,73.08
2017-03-14T00:35:47.523Z,73.27
2017-03-14T00:35:52.129Z,73.56
2017-03-14T00:35:56.725Z,74.22
2017-03-14T00:36:01.178Z,73.84
2017-03-14T00:36:05.777Z,73.84
2017-03-14T00:36:10.109Z,73.65
2017-03-14T00:36:14.749Z,73.65
2017-03-14T00:36:19.059Z,73.56
2017-03-14T00:36:23.677Z,73.56
2017-03-14T00:36:28.290Z,73.37
2017-03-14T00:36:32.753Z,73.18
2017-03-14T00:36:37.371Z,73.46
2017-03-14T00:36:41.684Z,73.46
2017-03-14T00:36:46.156Z,73.27
2017-03-14T00:36:50.622Z,73.37
2017-03-14T00:36:54.944Z,73.46
2017-03-14T00:36:59.553Z,73.84
2017-03-14T00:37:04.033Z,73.75
2017-03-14T00:37:08.654Z,73.46
2017-03-14T00:37:13.113Z,73.65
2017-03-14T00:37:17.580Z,73.56
2017-03-14T00:37:21.891Z,73.37
2017-03-14T00:37:26.207Z,73.37
2017-03-14T00:37:30.516Z,73.65
2017-03-14T00:37:35.118Z,73.37
2017-03-14T00:37:39.734Z,73.37
2017-03-14T00:37:44.206Z,73.27
2017-03-14T00:37:48.667Z,73.37
2017-03-14T00:37:53.272Z,73.08
2017-03-14T00:37:57.745Z,72.99
2017-03-14T00:38:02.358Z,73.27
2017-03-14T00:38:06.816Z,73.08
2017-03-14T00:38:11.282Z,73.46
2017-03-14T00:38:15.888Z,73.56
2017-03-14T00:38:20.354Z,73.65
2017-03-14T00:38:24.963Z,73.75
2017-03-14T00:38:29.427Z,73.84
2017-03-14T00:38:33.598Z,73.46
2017-03-14T00:38:38.229Z,73.46
2017-03-14T00:38:42.839Z,73.46
2017-03-14T00:38:47.449Z,73.18
2017-03-14T00:38:51.943Z,73.46
2017-03-14T00:38:56.559Z,72.99
2017-03-14T00:39:01.165Z,73.65
2017-03-14T00:39:05.780Z,73.46
2017-03-14T00:39:10.238Z,73.46
2017-03-14T00:39:14.860Z,73.56
2017-03-14T00:39:19.469Z,73.46
2017-03-14T00:39:23.936Z,73.37
2017-03-14T00:39:28.554Z,73.46
2017-03-14T00:39:33.022Z,73.46
2017-03-14T00:39:37.497Z,73.27
2017-03-14T00:39:42.110Z,73.37
2017-03-14T00:39:46.574Z,73.27
2017-03-14T00:39:51.179Z,73.46
2017-03-14T00:39:55.495Z,73.18
2017-03-14T00:40:00.111Z,73.65
2017-03-14T00:40:04.717Z,73.56
2017-03-14T00:40:09.324Z,72.99
2017-03-14T00:40:13.940Z,73.46
2017-03-14T00:40:18.407Z,73.18
2017-03-14T00:40:22.725Z,73.37
2017-03-14T00:40:27.185Z,73.18
2017-03-14T00:40:31.361Z,73.27
2017-03-14T00:40:35.973Z,73.75
2017-03-14T00:40:40.439Z,73.75
2017-03-14T00:40:45.042Z,73.56
2017-03-14T00:40:49.504Z,73.56
2017-03-14T00:40:53.970Z,73.65
2017-03-14T00:40:58.440Z,73.37
2017-03-14T00:41:02.924Z,73.37
2017-03-14T00:41:07.537Z,73.65
2017-03-14T00:41:12.142Z,73.65
2017-03-14T00:41:16.765Z,73.56
2017-03-14T00:41:21.374Z,73.75
2017-03-14T00:41:25.838Z,73.65
2017-03-14T00:41:30.444Z,73.56
2017-03-14T00:41:35.059Z,73.65
2017-03-14T00:41:39.694Z,73.46
2017-03-14T00:41:44.314Z,73.84
2017-03-14T00:41:48.931Z,73.27
2017-03-14T00:41:53.548Z,73.27
2017-03-14T00:41:57.868Z,73.56
2017-03-14T00:42:02.508Z,73.56
2017-03-14T00:42:06.970Z,73.46
2017-03-14T00:42:11.580Z,73.65
2017-03-14T00:42:16.183Z,73.37
2017-03-14T00:42:20.650Z,73.65
2017-03-14T00:42:25.261Z,73.65
2017-03-14T00:42:29.720Z,73.65
2017-03-14T00:42:34.343Z,73.65
2017-03-14T00:42:38.955Z,73.08
2017-03-14T00:42:43.565Z,73.37
2017-03-14T00:42:48.027Z,73.37
2017-03-14T00:42:52.340Z,73.37
2017-03-14T00:42:56.822Z,73.46
2017-03-14T00:43:01.438Z,73.75
2017-03-14T00:43:06.148Z,73.65
2017-03-14T00:43:10.758Z,73.08
2017-03-14T00:43:15.373Z,73.18
2017-03-14T00:43:19.989Z,73.18
2017-03-14T00:43:24.325Z,73.56
2017-03-14T00:43:28.936Z,73.27
2017-03-14T00:43:33.400Z,73.46
2017-03-14T00:43:38.015Z,73.37
2017-03-14T00:43:42.633Z,73.27
2017-03-14T00:43:47.249Z,73.37
2017-03-14T00:43:51.713Z,73.27
2017-03-14T00:43:56.173Z,73.18
2017-03-14T00:44:00.782Z,73.18
2017-03-14T00:44:05.757Z,73.37
2017-03-14T00:44:10.218Z,73.37
2017-03-14T00:44:14.825Z,73.27
2017-03-14T00:44:19.294Z,73.56
2017-03-14T00:44:23.908Z,73.37
2017-03-14T00:44:28.246Z,73.37
2017-03-14T00:44:32.721Z,73.37
2017-03-14T00:44:37.338Z,73.56
2017-03-14T00:44:41.944Z,73.27
2017-03-14T00:44:46.420Z,73.65
2017-03-14T00:44:51.031Z,73.27
2017-03-14T00:44:55.640Z,73.18
2017-03-14T00:45:00.101Z,73.18
2017-03-14T00:45:04.566Z,72.99
2017-03-14T00:45:09.209Z,72.89
2017-03-14T00:45:13.817Z,73.18
2017-03-14T00:45:18.139Z,73.56
2017-03-14T00:45:22.752Z,73.56
2017-03-14T00:45:27.237Z,73.46
2017-03-14T00:45:31.846Z,73.18
2017-03-14T00:45:36.306Z,72.8
2017-03-14T00:45:40.921Z,73.65
2017-03-14T00:45:45.534Z,73.18
2017-03-14T00:45:50.147Z,73.65
2017-03-14T00:45:54.759Z,72.8
2017-03-14T00:45:59.226Z,73.27
2017-03-14T00:46:03.951Z,73.56
2017-03-14T00:46:08.573Z,73.56
2017-03-14T00:46:13.029Z,73.37
2017-03-14T00:46:17.638Z,73.46
2017-03-14T00:46:22.244Z,73.46
2017-03-14T00:46:26.874Z,73.65
2017-03-14T00:46:31.496Z,73.37
2017-03-14T00:46:35.960Z,73.56
2017-03-14T00:46:40.579Z,73.37
2017-03-14T00:46:45.044Z,73.27
2017-03-14T00:46:49.393Z,73.37
2017-03-14T00:46:53.870Z,73.46
2017-03-14T00:46:58.482Z,73.37
2017-03-14T00:47:03.094Z,73.46
2017-03-14T00:47:07.558Z,73.18
2017-03-14T00:47:12.177Z,73.18
2017-03-14T00:47:16.791Z,73.27
2017-03-14T00:47:21.255Z,73.18
2017-03-14T00:47:25.867Z,73.18
2017-03-14T00:47:30.183Z,73.84
2017-03-14T00:47:34.642Z,73.56
2017-03-14T00:47:39.241Z,73.56
2017-03-14T00:47:43.841Z,73.46
2017-03-14T00:47:48.325Z,73.37
2017-03-14T00:47:52.792Z,73.18
2017-03-14T00:47:57.409Z,73.56
2017-03-14T00:48:01.885Z,73.37
2017-03-14T00:48:06.345Z,73.75
2017-03-14T00:48:10.953Z,73.56
2017-03-14T00:48:15.559Z,73.75
2017-03-14T00:48:20.184Z,73.37
2017-03-14T00:48:24.788Z,73.84
2017-03-14T00:48:29.384Z,73.37
2017-03-14T00:48:33.988Z,73.65
2017-03-14T00:48:38.608Z,73.56
2017-03-14T00:48:43.214Z,73.84
2017-03-14T00:48:47.815Z,73.18
2017-03-14T00:48:52.127Z,73.94
2017-03-14T00:48:56.746Z,73.27
2017-03-14T00:49:01.219Z,73.18
2017-03-14T00:49:05.677Z,73.75
2017-03-14T00:49:10.136Z,73.08
2017-03-14T00:49:14.778Z,73.75
2017-03-14T00:49:19.392Z,73.65
2017-03-14T00:49:23.857Z,73.18
2017-03-14T00:49:28.324Z,72.99
2017-03-14T00:49:32.817Z,73.37
2017-03-14T00:49:37.425Z,74.03
2017-03-14T00:49:42.041Z,74.03
2017-03-14T00:49:46.645Z,73.94
2017-03-14T00:49:51.248Z,74.13
2017-03-14T00:49:55.707Z,74.03
2017-03-14T00:50:00.309Z,73.65
2017-03-14T00:50:04.770Z,74.03
2017-03-14T00:50:09.382Z,74.22
2017-03-14T00:50:13.845Z,74.32
2017-03-14T00:50:18.316Z,74.03
2017-03-14T00:50:22.785Z,74.13
2017-03-14T00:50:27.398Z,73.94
2017-03-14T00:50:32.017Z,73.75
2017-03-14T00:50:36.663Z,74.13
2017-03-14T00:50:41.274Z,73.75
2017-03-14T00:50:45.758Z,73.94
2017-03-14T00:50:50.367Z,74.13
2017-03-14T00:50:54.974Z,73.65
2017-03-14T00:50:59.434Z,73.75
2017-03-14T00:51:04.351Z,73.56
2017-03-14T00:51:08.968Z,73.65
2017-03-14T00:51:13.577Z,73.65
2017-03-14T00:51:18.031Z,73.94
2017-03-14T00:51:22.496Z,73.75
2017-03-14T00:51:26.846Z,73.84
2017-03-14T00:51:31.163Z,73.46
2017-03-14T00:51:35.482Z,73.75
2017-03-14T00:51:40.100Z,74.13
2017-03-14T00:51:44.720Z,73.75
2017-03-14T00:51:49.057Z,74.13
2017-03-14T00:51:53.671Z,74.13
2017-03-14T00:51:58.335Z,74.13
2017-03-14T00:52:02.792Z,74.13
2017-03-14T00:52:07.257Z,73.94
2017-03-14T00:52:11.868Z,73.94
2017-03-14T00:52:16.483Z,74.32
2017-03-14T00:52:21.092Z,74.22
2017-03-14T00:52:25.553Z,74.13
2017-03-14T00:52:30.021Z,74.13
2017-03-14T00:52:34.660Z,73.94
2017-03-14T00:52:39.274Z,74.13
2017-03-14T00:52:43.887Z,74.13
2017-03-14T00:52:48.500Z,74.22
2017-03-14T00:52:52.972Z,74.22
2017-03-14T00:52:57.588Z,73.94
2017-03-14T00:53:02.058Z,74.03
2017-03-14T00:53:06.662Z,74.13
2017-03-14T00:53:11.276Z,74.13
2017-03-14T00:53:15.881Z,74.51
2017-03-14T00:53:20.348Z,74.41
2017-03-14T00:53:24.961Z,74.41
2017-03-14T00:53:29.424Z,74.6
2017-03-14T00:53:34.034Z,74.41
2017-03-14T00:53:38.640Z,74.51
2017-03-14T00:53:43.132Z,74.69
2017-03-14T00:53:47.599Z,74.79
2017-03-14T00:53:52.216Z,74.6
2017-03-14T00:53:56.680Z,74.41
2017-03-14T00:54:01.136Z,74.6
2017-03-14T00:54:05.951Z,74.51
2017-03-14T00:54:10.417Z,74.41
2017-03-14T00:54:15.019Z,74.41
2017-03-14T00:54:19.628Z,74.41
2017-03-14T00:54:24.240Z,74.79
2017-03-14T00:54:28.566Z,74.88
2017-03-14T00:54:33.171Z,74.6
2017-03-14T00:54:37.786Z,74.41
2017-03-14T00:54:42.249Z,74.6
2017-03-14T00:54:46.714Z,74.98
2017-03-14T00:54:51.326Z,74.69
2017-03-14T00:54:55.793Z,74.79
2017-03-14T00:55:00.406Z,74.88
2017-03-14T00:55:04.934Z,74.88
2017-03-14T00:55:09.549Z,74.69
2017-03-14T00:55:14.203Z,75.07
2017-03-14T00:55:18.670Z,74.88
2017-03-14T00:55:23.136Z,74.79
2017-03-14T00:55:27.758Z,74.88
2017-03-14T00:55:32.219Z,74.98
2017-03-14T00:55:36.836Z,74.69
2017-03-14T00:55:41.451Z,75.26
2017-03-14T00:55:45.925Z,75.26
2017-03-14T00:55:50.527Z,75.45
2017-03-14T00:55:55.004Z,75.17
2017-03-14T00:55:59.476Z,75.07
2017-03-14T00:56:04.065Z,75.07
2017-03-14T00:56:08.526Z,75.64
2017-03-14T00:56:13.139Z,75.84
2017-03-14T00:56:17.755Z,75.07
2017-03-14T00:56:22.368Z,75.07
2017-03-14T00:56:26.975Z,74.98
2017-03-14T00:56:31.444Z,74.88
2017-03-14T00:56:36.050Z,75.07
2017-03-14T00:56:40.652Z,75.17
2017-03-14T00:56:45.254Z,74.88
2017-03-14T00:56:49.718Z,75.07
2017-03-14T00:56:54.327Z,75.07
2017-03-14T00:56:58.952Z,75.64
2017-03-14T00:57:03.419Z,75.07
2017-03-14T00:57:07.745Z,75.45
2017-03-14T00:57:12.357Z,75.45
2017-03-14T00:57:16.968Z,75.45
2017-03-14T00:57:21.286Z,74.98
2017-03-14T00:57:25.890Z,75.55
2017-03-14T00:57:30.510Z,75.07
2017-03-14T00:57:34.986Z,75.45
2017-03-14T00:57:39.595Z,75.26
2017-03-14T00:57:44.214Z,75.45
2017-03-14T00:57:48.826Z,75.74
2017-03-14T00:57:52.999Z,75.36
2017-03-14T00:57:57.638Z,75.84
2017-03-14T00:58:02.498Z,75.36
2017-03-14T00:58:07.108Z,75.07
2017-03-14T00:58:11.740Z,75.45
2017-03-14T00:58:16.201Z,75.45
2017-03-14T00:58:20.817Z,75.93
2017-03-14T00:58:25.429Z,75.93
2017-03-14T00:58:29.892Z,75.45
2017-03-14T00:58:34.505Z,75.55
2017-03-14T00:58:39.117Z,75.84
2017-03-14T00:58:43.578Z,75.55